createdAt,value
2023-05-03T00:01:17.524Z,100.00
2023-05-03T00:03:45.984Z,100.00
2023-05-03T00:06:16.814Z,99.51
2023-05-03T00:08:51.566Z,99.50
2023-05-03T00:11:18.832Z,99.00
2023-05-03T00:13:48.382Z,98.90
2023-05-03T00:16:15.877Z,99.33
2023-05-03T00:18:43.280Z,99.01
2023-05-03T00:21:10.837Z,98.93
2023-05-03T00:23:38.289Z,98.49
2023-05-03T00:26:05.707Z,98.78
2023-05-03T00:28:34.218Z,98.30
2023-05-03T00:31:11.461Z,98.29
2023-05-03T00:33:39.831Z,98.23
2023-05-03T00:36:15.164Z,98.48
2023-05-03T00:38:42.970Z,97.91
2023-05-03T00:41:11.512Z,98.25
2023-05-03T00:43:39.510Z,98.27
2023-05-03T00:46:16.614Z,98.33
2023-05-03T00:48:45.925Z,98.34
2023-05-03T00:51:16.053Z,98.04
2023-05-03T00:53:44.332Z,97.68
2023-05-03T00:56:12.300Z,97.70
2023-05-03T00:58:40.877Z,97.88
2023-05-03T01:01:10.310Z,97.67
2023-05-03T01:03:41.655Z,97.86
2023-05-03T01:06:21.277Z,97.82
2023-05-03T01:09:00.867Z,97.80
2023-05-03T01:11:48.160Z,97.82
2023-05-03T01:14:41.350Z,97.83
2023-05-03T01:17:12.814Z,97.39
2023-05-03T01:19:44.795Z,97.29
2023-05-03T01:22:22.851Z,97.85
2023-05-03T01:25:00.307Z,97.29
2023-05-03T01:27:27.662Z,96.69
2023-05-03T01:29:55.483Z,96.61
2023-05-03T01:32:33.054Z,96.97
2023-05-03T01:35:12.980Z,96.68
2023-05-03T01:37:41.701Z,96.73
2023-05-03T01:40:11.590Z,96.70
2023-05-03T01:42:39.785Z,96.14
2023-05-03T01:45:08.490Z,95.69
2023-05-03T01:47:36.294Z,95.70
2023-05-03T01:50:10.875Z,95.29
2023-05-03T01:52:38.596Z,95.33
2023-05-03T01:55:06.683Z,95.74
2023-05-03T01:57:34.050Z,96.39
2023-05-03T02:00:01.753Z,95.80
2023-05-03T02:02:29.207Z,96.13
2023-05-03T02:04:56.553Z,96.32
2023-05-03T02:07:30.036Z,96.12
2023-05-03T02:10:03.939Z,95.63
2023-05-03T02:12:32.623Z,96.18
2023-05-03T02:15:00.083Z,96.01
2023-05-03T02:17:29.287Z,96.40
2023-05-03T02:19:57.625Z,96.54
2023-05-03T02:22:25.774Z,97.23
2023-05-03T02:24:53.084Z,98.68
2023-05-03T02:27:20.402Z,98.69
2023-05-03T02:29:47.905Z,99.11
2023-05-03T02:32:15.381Z,99.97
2023-05-03T02:34:45.479Z,99.86
2023-05-03T02:37:18.982Z,99.05
2023-05-03T02:39:46.552Z,99.43
2023-05-03T02:42:13.968Z,98.67
2023-05-03T02:44:43.349Z,98.75
2023-05-03T02:47:17.046Z,97.80
2023-05-03T02:49:44.256Z,97.16
2023-05-03T02:52:11.601Z,97.60
2023-05-03T02:54:46.781Z,98.33
2023-05-03T02:57:16.447Z,97.98
2023-05-03T02:59:44.023Z,98.45
2023-05-03T03:02:11.152Z,98.77
2023-05-03T03:04:39.452Z,99.60
2023-05-03T03:07:06.886Z,99.65
2023-05-03T03:09:34.475Z,99.66
2023-05-03T03:12:05.677Z,97.63
2023-05-03T03:14:32.850Z,95.75
2023-05-03T03:17:02.379Z,95.07
2023-05-03T03:19:29.718Z,94.53
2023-05-03T03:21:57.237Z,95.01
2023-05-03T03:24:25.170Z,92.83
2023-05-03T03:26:52.697Z,91.36
2023-05-03T03:29:20.089Z,91.00
2023-05-03T03:31:47.617Z,89.81
2023-05-03T03:34:23.943Z,90.22
2023-05-03T03:36:51.254Z,88.65
2023-05-03T03:39:19.675Z,87.26
2023-05-03T03:41:47.337Z,87.32
2023-05-03T03:44:15.725Z,88.03
2023-05-03T03:46:43.074Z,87.92
2023-05-03T03:49:10.615Z,88.17
2023-05-03T03:51:40.022Z,88.40
2023-05-03T03:54:07.560Z,88.73
2023-05-03T03:56:34.980Z,88.56
2023-05-03T03:59:02.567Z,88.95
2023-05-03T04:01:31.046Z,89.07
2023-05-03T04:03:58.498Z,89.99
2023-05-03T04:06:27.282Z,89.70
2023-05-03T04:08:54.840Z,90.03
2023-05-03T04:11:22.392Z,90.51
2023-05-03T04:13:49.845Z,90.83
2023-05-03T04:16:19.541Z,91.42
2023-05-03T04:18:46.770Z,91.92
2023-05-03T04:21:14.182Z,91.49
2023-05-03T04:23:42.887Z,90.44
2023-05-03T04:26:23.504Z,90.49
2023-05-03T04:28:58.514Z,90.81
2023-05-03T04:31:26.155Z,90.74
2023-05-03T04:33:54.505Z,91.55
2023-05-03T04:36:26.084Z,90.77
2023-05-03T04:38:53.517Z,90.76
2023-05-03T04:41:22.506Z,90.77
2023-05-03T04:43:51.702Z,90.76
2023-05-03T04:46:19.004Z,91.66
2023-05-03T04:48:47.515Z,91.40
2023-05-03T04:51:15.929Z,92.50
2023-05-03T04:53:45.434Z,93.55
2023-05-03T04:56:12.913Z,93.44
2023-05-03T04:58:40.399Z,93.15
2023-05-03T05:01:07.871Z,92.35
2023-05-03T05:03:36.548Z,91.82
2023-05-03T05:06:07.260Z,93.76
2023-05-03T05:08:34.874Z,94.08
2023-05-03T05:11:06.050Z,95.79
2023-05-03T05:13:35.938Z,96.62
2023-05-03T05:16:04.130Z,97.53
2023-05-03T05:18:31.526Z,98.25
2023-05-03T05:21:00.952Z,99.34
2023-05-03T05:23:28.317Z,99.62
2023-05-03T05:26:00.894Z,100.00
2023-05-03T05:28:29.120Z,100.00
2023-05-03T05:30:56.726Z,100.00
2023-05-03T05:33:24.703Z,100.00
2023-05-03T05:35:52.295Z,100.00
2023-05-03T05:38:19.641Z,99.32
2023-05-03T05:40:47.119Z,98.09
2023-05-03T05:43:14.586Z,97.04
2023-05-03T05:45:42.437Z,97.28
2023-05-03T05:48:10.044Z,96.87
2023-05-03T05:50:37.518Z,94.11
2023-05-03T05:53:04.908Z,94.06
2023-05-03T05:55:34.553Z,94.10
2023-05-03T05:58:02.081Z,93.84
2023-05-03T06:00:30.657Z,93.97
2023-05-03T06:02:57.820Z,92.63
2023-05-03T06:05:25.854Z,93.34
2023-05-03T06:07:53.373Z,93.49
2023-05-03T06:10:20.904Z,92.38
2023-05-03T06:12:48.612Z,91.87
2023-05-03T06:15:15.887Z,92.75
2023-05-03T06:17:43.650Z,93.70
2023-05-03T06:20:12.325Z,91.37
2023-05-03T06:22:39.685Z,89.92
2023-05-03T06:25:10.813Z,90.99
2023-05-03T06:27:38.748Z,90.21
2023-05-03T06:30:06.798Z,86.47
2023-05-03T06:32:35.191Z,86.26
2023-05-03T06:35:02.583Z,83.99
2023-05-03T06:37:30.008Z,82.01
2023-05-03T06:39:58.505Z,80.22
2023-05-03T06:42:26.007Z,80.80
2023-05-03T06:44:53.418Z,80.69
2023-05-03T06:47:21.863Z,77.25
2023-05-03T06:49:49.341Z,76.39
2023-05-03T06:52:17.051Z,75.20
2023-05-03T06:54:44.786Z,73.79
2023-05-03T06:57:12.672Z,73.23
2023-05-03T06:59:41.434Z,74.68
2023-05-03T07:02:08.458Z,72.54
2023-05-03T07:04:40.077Z,74.27
2023-05-03T07:07:07.987Z,73.48
2023-05-03T07:09:43.306Z,73.17
2023-05-03T07:12:11.644Z,71.60
2023-05-03T07:14:40.079Z,70.99
2023-05-03T07:17:07.630Z,72.80
2023-05-03T07:19:35.548Z,71.94
2023-05-03T07:22:03.615Z,72.30
2023-05-03T07:24:31.223Z,72.55
2023-05-03T07:26:59.368Z,73.55
2023-05-03T07:29:27.914Z,72.35
2023-05-03T07:31:55.487Z,72.02
2023-05-03T07:34:23.077Z,72.01
2023-05-03T07:36:50.459Z,73.00
2023-05-03T07:39:19.590Z,74.01
2023-05-03T07:41:49.422Z,71.54
2023-05-03T07:44:16.972Z,70.21
2023-05-03T07:46:44.404Z,67.99
2023-05-03T07:49:11.937Z,68.27
2023-05-03T07:51:40.611Z,69.63
2023-05-03T07:54:07.919Z,67.64
2023-05-03T07:56:35.295Z,69.55
2023-05-03T08:01:34.212Z,68.12
2023-05-03T08:04:01.966Z,66.11
2023-05-03T08:06:29.844Z,64.85
2023-05-03T08:08:57.226Z,63.18
2023-05-03T08:11:31.145Z,63.55
2023-05-03T08:13:58.765Z,63.01
2023-05-03T08:16:26.527Z,63.73
2023-05-03T08:18:54.138Z,63.43
2023-05-03T08:21:22.408Z,62.54
2023-05-03T08:23:50.198Z,61.68
2023-05-03T08:26:24.570Z,62.13
2023-05-03T08:28:52.719Z,63.36
2023-05-03T08:31:20.352Z,63.38
2023-05-03T08:33:48.773Z,63.53
2023-05-03T08:36:17.213Z,64.77
2023-05-03T08:38:44.622Z,65.73
2023-05-03T08:41:21.742Z,66.73
2023-05-03T08:43:54.467Z,63.47
2023-05-03T08:46:22.304Z,60.51
2023-05-03T08:48:53.052Z,63.30
2023-05-03T08:51:22.239Z,61.67
2023-05-03T08:53:53.044Z,60.56
2023-05-03T08:56:33.878Z,58.89
2023-05-03T08:59:08.106Z,58.28
2023-05-03T09:01:40.816Z,57.01
2023-05-03T09:04:09.950Z,57.31
2023-05-03T09:06:43.722Z,56.48
2023-05-03T09:09:11.350Z,56.74
2023-05-03T09:11:39.414Z,57.52
2023-05-03T09:14:17.276Z,57.49
2023-05-03T09:16:46.966Z,58.77
2023-05-03T09:19:16.079Z,60.00
2023-05-03T09:21:47.597Z,61.79
2023-05-03T09:24:17.228Z,61.41
2023-05-03T09:26:46.953Z,60.96
2023-05-03T09:29:36.296Z,60.71
2023-05-03T09:32:09.061Z,60.75
2023-05-03T09:34:37.347Z,58.31
2023-05-03T09:37:05.806Z,57.80
2023-05-03T09:39:33.869Z,58.28
2023-05-03T09:42:17.847Z,57.12
2023-05-03T09:44:44.812Z,56.90
2023-05-03T09:47:12.613Z,56.73
2023-05-03T09:49:47.116Z,56.75
2023-05-03T09:52:14.623Z,54.49
2023-05-03T09:54:48.887Z,54.72
2023-05-03T09:57:16.201Z,53.63
2023-05-03T09:59:46.407Z,54.20
2023-05-03T10:02:13.653Z,54.58
2023-05-03T10:04:48.626Z,54.88
2023-05-03T10:07:22.938Z,54.53
2023-05-03T10:09:50.461Z,54.88
2023-05-03T10:12:20.653Z,53.56
2023-05-03T10:14:49.163Z,53.70
2023-05-03T10:17:47.233Z,53.23
2023-05-03T10:20:52.250Z,53.81
2023-05-03T10:23:19.577Z,53.99
2023-05-03T10:26:13.745Z,53.38
2023-05-03T10:28:41.976Z,53.61
2023-05-03T10:31:48.455Z,54.23
2023-05-03T10:34:26.215Z,52.53
2023-05-03T10:36:54.405Z,52.32
2023-05-03T10:39:22.897Z,52.52
2023-05-03T10:42:16.158Z,52.44
2023-05-03T10:44:54.120Z,51.67
2023-05-03T10:47:23.850Z,51.80
2023-05-03T10:50:14.152Z,49.72
2023-05-03T10:52:41.436Z,50.05
2023-05-03T10:55:21.380Z,49.13
2023-05-03T10:57:49.694Z,48.47
2023-05-03T11:00:23.856Z,48.51
2023-05-03T11:03:15.321Z,48.22
2023-05-03T11:05:43.074Z,47.32
2023-05-03T11:08:21.151Z,46.98
2023-05-03T11:10:57.462Z,46.22
2023-05-03T11:13:26.366Z,46.33
2023-05-03T11:15:55.393Z,47.21
2023-05-03T11:18:26.395Z,46.85
2023-05-03T11:20:54.259Z,46.79
2023-05-03T11:23:27.762Z,45.04
2023-05-03T11:25:56.925Z,44.94
2023-05-03T11:28:26.548Z,46.25
2023-05-03T11:30:55.142Z,46.82
2023-05-03T11:33:22.339Z,45.64
2023-05-03T11:35:50.954Z,45.99
2023-05-03T11:38:18.203Z,46.88
2023-05-03T11:40:47.631Z,45.63
2023-05-03T11:43:15.233Z,46.34
2023-05-03T11:45:47.321Z,45.12
2023-05-03T11:48:17.163Z,46.68
2023-05-03T11:50:54.717Z,44.77
2023-05-03T11:53:26.664Z,45.71
2023-05-03T11:55:55.058Z,45.10
2023-05-03T11:58:28.092Z,44.29
2023-05-03T12:00:57.844Z,44.31
2023-05-03T12:03:32.237Z,44.91
2023-05-03T12:06:02.160Z,44.89
2023-05-03T12:08:35.421Z,44.65
2023-05-03T12:11:06.498Z,44.65
2023-05-03T12:13:44.274Z,44.66
2023-05-03T12:16:14.782Z,45.15
2023-05-03T12:18:55.695Z,46.54
2023-05-03T12:23:57.350Z,45.69
2023-05-03T12:26:26.674Z,47.04
2023-05-03T12:28:55.939Z,47.26
2023-05-03T12:31:24.879Z,47.80
2023-05-03T12:36:26.221Z,47.37
2023-05-03T12:38:56.530Z,48.08
2023-05-03T12:42:04.797Z,47.70
2023-05-03T12:44:17.237Z,46.18
2023-05-03T12:46:46.209Z,45.76
2023-05-03T12:49:15.522Z,45.00
2023-05-03T12:51:43.360Z,46.72
2023-05-03T12:54:12.101Z,45.99
2023-05-03T12:56:40.733Z,44.92
2023-05-03T12:59:39.238Z,44.69
2023-05-03T13:07:00.226Z,44.58
2023-05-03T13:09:37.865Z,43.72
2023-05-03T13:12:15.875Z,44.41
2023-05-03T13:14:45.398Z,44.86
2023-05-03T13:17:13.794Z,43.44
2023-05-03T13:19:48.089Z,42.66
2023-05-03T13:22:16.272Z,42.70
2023-05-03T13:24:48.038Z,42.84
2023-05-03T13:27:18.326Z,41.07
2023-05-03T13:29:47.533Z,41.70
2023-05-03T13:32:17.229Z,41.95
2023-05-03T13:34:44.967Z,43.50
2023-05-03T13:37:14.394Z,43.28
2023-05-03T13:39:41.510Z,42.76
2023-05-03T13:42:10.123Z,43.09
2023-05-03T13:44:37.462Z,44.06
2023-05-03T13:47:05.207Z,43.79
2023-05-03T13:49:32.409Z,43.13
2023-05-03T13:51:59.731Z,44.52
2023-05-03T13:54:27.262Z,42.51
2023-05-03T13:56:54.676Z,42.10
2023-05-03T13:59:22.307Z,42.94
2023-05-03T14:02:03.153Z,41.36
2023-05-03T14:04:31.969Z,42.40
2023-05-03T14:07:03.233Z,40.78
2023-05-03T14:09:31.335Z,39.49
2023-05-03T14:11:58.874Z,38.93
2023-05-03T14:14:36.980Z,38.84
2023-05-03T14:17:04.750Z,38.95
2023-05-03T14:19:36.564Z,39.36
2023-05-03T14:22:04.741Z,39.16
2023-05-03T14:24:38.240Z,39.42
2023-05-03T14:27:05.584Z,38.51
2023-05-03T14:29:33.171Z,38.05
2023-05-03T14:32:01.417Z,37.06
2023-05-03T14:34:29.375Z,37.41
2023-05-03T14:36:56.906Z,35.21
2023-05-03T14:39:24.895Z,35.30
2023-05-03T14:41:52.624Z,35.73
2023-05-03T14:44:21.046Z,37.21
2023-05-03T14:46:48.344Z,37.15
2023-05-03T14:49:17.972Z,37.94
2023-05-03T14:51:46.291Z,37.26
2023-05-03T14:54:13.827Z,37.34
2023-05-03T14:56:41.404Z,37.87
2023-05-03T14:59:14.817Z,37.19
2023-05-03T15:01:42.282Z,35.97
2023-05-03T15:04:10.866Z,35.25
2023-05-03T15:06:39.821Z,35.07
2023-05-03T15:09:08.948Z,35.74
2023-05-03T15:11:36.211Z,33.87
2023-05-03T15:14:03.925Z,34.39
2023-05-03T15:16:31.195Z,33.23
2023-05-03T15:18:58.651Z,31.89
2023-05-03T15:21:27.303Z,32.26
2023-05-03T15:23:55.377Z,31.49
2023-05-03T15:26:22.913Z,31.39
2023-05-03T15:28:50.432Z,32.40
2023-05-03T15:31:17.966Z,32.24
2023-05-03T15:33:45.927Z,31.29
2023-05-03T15:36:17.068Z,32.73
2023-05-03T15:38:44.445Z,33.02
2023-05-03T15:41:11.901Z,34.37
2023-05-03T15:43:41.467Z,34.47
2023-05-03T15:46:09.124Z,33.58
2023-05-03T15:48:38.797Z,32.78
2023-05-03T15:51:06.472Z,32.66
2023-05-03T15:53:33.890Z,32.64
2023-05-03T15:56:02.805Z,33.21
2023-05-03T15:58:31.518Z,32.96
2023-05-03T16:00:59.580Z,32.84
2023-05-03T16:03:30.044Z,35.37
2023-05-03T16:06:03.548Z,35.20
2023-05-03T16:08:31.012Z,32.53
2023-05-03T16:11:01.425Z,33.31
2023-05-03T16:13:31.006Z,33.39
2023-05-03T16:16:02.938Z,33.40
2023-05-03T16:18:32.327Z,33.75
2023-05-03T16:21:01.721Z,34.13
2023-05-03T16:23:31.216Z,35.22
2023-05-03T16:26:00.612Z,36.02
2023-05-03T16:28:28.101Z,35.26
2023-05-03T16:30:57.527Z,36.27
2023-05-03T16:33:25.130Z,35.36
2023-05-03T16:35:53.485Z,35.64
2023-05-03T16:38:21.278Z,36.57
2023-05-03T16:40:49.944Z,37.85
2023-05-03T16:43:19.449Z,37.31
2023-05-03T16:45:56.340Z,38.35
2023-05-03T16:48:24.126Z,38.58
2023-05-03T16:50:51.507Z,38.16
2023-05-03T16:53:19.260Z,38.88
2023-05-03T16:55:53.481Z,39.53
2023-05-03T16:58:20.624Z,39.34
2023-05-03T17:00:48.333Z,39.04
2023-05-03T17:03:17.785Z,39.55
2023-05-03T17:05:45.057Z,39.87
2023-05-03T17:08:12.615Z,40.08
2023-05-03T17:10:39.849Z,40.32
2023-05-03T17:13:09.642Z,40.87
2023-05-03T17:15:37.889Z,40.30
2023-05-03T17:18:05.717Z,40.82
2023-05-03T17:20:35.064Z,41.32
2023-05-03T17:23:06.103Z,40.62
2023-05-03T17:25:33.752Z,40.71
2023-05-03T17:28:01.657Z,41.10
2023-05-03T17:30:30.947Z,42.04
2023-05-03T17:32:59.472Z,41.86
2023-05-03T17:35:27.002Z,41.53
2023-05-03T17:37:54.202Z,41.45
2023-05-03T17:40:21.867Z,41.62
2023-05-03T17:42:49.327Z,41.77
2023-05-03T17:45:16.776Z,40.92
2023-05-03T17:47:45.100Z,41.82
2023-05-03T17:50:13.668Z,41.45
2023-05-03T17:52:41.989Z,41.69
2023-05-03T17:55:10.013Z,42.58
2023-05-03T17:57:37.749Z,42.83
2023-05-03T18:00:07.512Z,42.28
2023-05-03T18:02:35.288Z,42.61
2023-05-03T18:05:03.608Z,42.92
2023-05-03T18:07:31.044Z,43.39
2023-05-03T18:10:02.108Z,43.52
2023-05-03T18:12:30.858Z,44.14
2023-05-03T18:15:02.396Z,44.86
2023-05-03T18:17:30.184Z,45.25
2023-05-03T18:19:57.457Z,44.69
2023-05-03T18:22:27.926Z,45.24
2023-05-03T18:24:55.671Z,45.35
2023-05-03T18:27:23.408Z,45.68
2023-05-03T18:29:51.819Z,45.62
2023-05-03T18:32:19.912Z,45.69
2023-05-03T18:34:47.904Z,46.07
2023-05-03T18:37:15.789Z,46.34
2023-05-03T18:39:45.355Z,46.61
2023-05-03T18:42:16.440Z,46.84
2023-05-03T18:44:43.987Z,47.26
2023-05-03T18:47:14.188Z,47.53
2023-05-03T18:49:41.842Z,47.67
2023-05-03T18:52:10.111Z,47.75
2023-05-03T18:54:38.671Z,48.09
2023-05-03T18:57:07.587Z,48.27
2023-05-03T18:59:42.770Z,48.41
2023-05-03T19:02:17.390Z,49.11
2023-05-03T19:04:46.040Z,49.46
2023-05-03T19:07:16.409Z,51.00
2023-05-03T19:09:45.600Z,53.09
2023-05-03T19:12:15.830Z,55.09
2023-05-03T19:14:44.560Z,56.24
2023-05-03T19:17:12.539Z,55.80
2023-05-03T19:19:40.393Z,55.43
2023-05-03T19:22:08.098Z,56.90
2023-05-03T19:24:37.309Z,56.74
2023-05-03T19:27:07.250Z,57.84
2023-05-03T19:29:36.373Z,58.74
2023-05-03T19:32:04.554Z,59.96
2023-05-03T19:34:32.200Z,61.66
2023-05-03T19:36:59.860Z,64.44
2023-05-03T19:39:28.483Z,66.85
2023-05-03T19:42:03.065Z,67.41
2023-05-03T19:44:33.674Z,67.73
2023-05-03T19:47:04.344Z,67.25
2023-05-03T19:49:32.110Z,68.23
2023-05-03T19:52:02.340Z,68.79
2023-05-03T19:54:31.360Z,70.42
2023-05-03T19:56:58.799Z,71.08
2023-05-03T19:59:29.523Z,73.21
2023-05-03T20:01:57.924Z,73.23
2023-05-03T20:04:27.192Z,72.08
2023-05-03T20:06:55.827Z,69.25
2023-05-03T20:09:23.696Z,68.73
2023-05-03T20:11:59.074Z,68.51
2023-05-03T20:14:29.898Z,69.77
2023-05-03T20:17:00.136Z,72.81
2023-05-03T20:19:28.765Z,74.08
2023-05-03T20:21:56.702Z,74.48
2023-05-03T20:24:24.233Z,74.68
2023-05-03T20:26:53.775Z,74.79
2023-05-03T20:29:21.541Z,75.23
2023-05-03T20:31:52.354Z,74.08
2023-05-03T20:34:20.604Z,73.37
2023-05-03T20:36:48.149Z,74.05
2023-05-03T20:39:15.992Z,74.09
2023-05-03T20:41:43.483Z,74.55
2023-05-03T20:44:10.946Z,77.77
2023-05-03T20:46:39.736Z,78.98
2023-05-03T20:49:09.720Z,79.08
2023-05-03T20:51:37.436Z,82.89
2023-05-03T20:54:04.851Z,84.30
2023-05-03T20:56:33.900Z,85.07
2023-05-03T20:59:01.275Z,84.09
2023-05-03T21:01:28.813Z,80.07
2023-05-03T21:03:57.230Z,79.40
2023-05-03T21:06:24.716Z,80.23
2023-05-03T21:08:53.144Z,80.61
2023-05-03T21:11:20.655Z,81.94
2023-05-03T21:13:48.071Z,81.73
2023-05-03T21:16:15.589Z,79.95
2023-05-03T21:18:43.126Z,79.68
2023-05-03T21:21:10.465Z,79.78
2023-05-03T21:23:37.971Z,79.66
2023-05-03T21:26:05.460Z,79.53
2023-05-03T21:28:32.919Z,80.32
2023-05-03T21:31:02.438Z,81.19
2023-05-03T21:33:29.893Z,81.89
2023-05-03T21:35:57.226Z,84.32
2023-05-03T21:38:30.434Z,86.58
2023-05-03T21:41:06.195Z,84.94
2023-05-03T21:43:35.731Z,85.61
2023-05-03T21:46:06.869Z,85.14
2023-05-03T21:48:37.597Z,84.05
2023-05-03T21:51:05.362Z,84.36
2023-05-03T21:53:32.875Z,86.09
2023-05-03T21:56:00.526Z,85.77
2023-05-03T21:58:27.864Z,85.49
2023-05-03T22:00:55.363Z,85.98
2023-05-03T22:03:23.075Z,87.75
2023-05-03T22:05:51.777Z,88.79
2023-05-03T22:08:19.311Z,89.32
2023-05-03T22:10:46.729Z,89.35
2023-05-03T22:13:14.345Z,89.16
2023-05-03T22:15:42.809Z,88.54
2023-05-03T22:18:11.792Z,88.73
2023-05-03T22:20:39.086Z,88.61
2023-05-03T22:23:06.679Z,88.77
2023-05-03T22:25:34.041Z,88.79
2023-05-03T22:28:01.492Z,89.11
2023-05-03T22:30:30.132Z,88.77
2023-05-03T22:32:58.491Z,89.71
2023-05-03T22:35:26.982Z,90.78
2023-05-03T22:37:54.379Z,91.41
2023-05-03T22:40:21.988Z,93.21
2023-05-03T22:42:49.299Z,93.88
2023-05-03T22:45:18.810Z,93.43
2023-05-03T22:47:46.344Z,93.45
2023-05-03T22:50:15.825Z,94.07
2023-05-03T22:52:43.283Z,95.45
2023-05-03T22:55:11.743Z,95.80
2023-05-03T22:57:40.175Z,94.42
2023-05-03T23:00:10.572Z,93.74
2023-05-03T23:02:38.391Z,93.91
2023-05-03T23:05:06.944Z,93.52
2023-05-03T23:07:34.211Z,93.35
2023-05-03T23:10:06.657Z,93.89
2023-05-03T23:12:34.382Z,94.78
2023-05-03T23:15:02.610Z,94.68
2023-05-03T23:17:29.947Z,93.44
2023-05-03T23:19:57.570Z,93.37
2023-05-03T23:22:24.986Z,93.88
2023-05-03T23:24:52.452Z,95.26
2023-05-03T23:27:19.824Z,98.02
2023-05-03T23:29:48.511Z,100.00
2023-05-03T23:32:16.458Z,100.00
2023-05-03T23:34:45.324Z,99.63
2023-05-03T23:37:12.725Z,98.37
2023-05-03T23:39:46.321Z,96.93
2023-05-03T23:42:14.733Z,97.35
2023-05-03T23:44:54.651Z,99.52
2023-05-03T23:47:24.414Z,100.00
2023-05-03T23:49:54.181Z,100.00
2023-05-03T23:52:22.571Z,99.88
2023-05-03T23:54:51.362Z,99.63
2023-05-03T23:57:18.500Z,99.70
2023-05-03T23:59:46.118Z,99.52
